Time;durP1;ratioP1;P1;durP2;ratioP2;P2;SDS_P1;SDS_P2;PMS_P1;PMS_P2;Temp;Humidity;BMP_temperature;BMP_pressure;BME280_temperature;BME280_humidity;BME280_pressure;Samples;Min_cycle;Max_cycle;Signal;HPM_P1;HPM_P2
2021/12/16 00:01:47;;;;;;;9.57;4.73;;;;;;;;;;4971856;28;20107;-90
2021/12/16 00:07:26;;;;;;;14.07;6.18;;;;;;;;;;4992658;28;20050;-89
2021/12/16 00:10:01;;;;;;;10.85;4.72;;;;;;;;;;5003666;28;20050;-89
2021/12/16 00:32:36;;;;;;;9.93;4.65;;;;;;;;;;4918203;29;20151;-90
2021/12/16 00:35:07;;;;;;;12.55;5.70;;;;;;;;;;4985287;28;20453;-90
2021/12/16 00:37:37;;;;;;;11.82;5.68;;;;;;;;;;4995575;28;20061;-89
2021/12/16 00:40:13;;;;;;;11.95;5.50;;;;;;;;;;4980336;28;20049;-90
2021/12/16 00:42:49;;;;;;;14.20;5.40;;;;;;;;;;4995200;28;20404;-90
2021/12/16 00:46:08;;;;;;;11.18;5.40;;;;;;;;;;4995667;28;20053;-90
2021/12/16 00:49:03;;;;;;;11.25;4.72;;;;;;;;;;4976031;28;20065;-89
2021/12/16 00:54:22;;;;;;;12.10;5.13;;;;;;;;;;4995667;28;20808;-89
2021/12/16 00:56:57;;;;;;;12.83;5.87;;;;;;;;;;4975475;28;20080;-88
2021/12/16 00:59:32;;;;;;;12.52;5.25;;;;;;;;;;4995702;28;20079;-89
2021/12/16 01:02:22;;;;;;;11.52;5.18;;;;;;;;;;4995378;28;20062;-89
2021/12/16 01:05:32;;;;;;;12.63;5.18;;;;;;;;;;4977659;28;20050;-89
2021/12/16 01:08:27;;;;;;;14.02;5.80;;;;;;;;;;4994866;28;20390;-89
2021/12/16 01:35:45;;;;;;;10.13;5.93;;;;;;;;;;4977478;28;20088;-89
2021/12/16 01:39:17;;;;;;;11.55;5.30;;;;;;;;;;4978112;28;20381;-89
2021/12/16 01:42:18;;;;;;;8.97;4.10;;;;;;;;;;4977126;28;20107;-90
2021/12/16 01:48:45;;;;;;;11.40;5.40;;;;;;;;;;4978593;28;20116;-89
2021/12/16 01:51:19;;;;;;;10.68;4.97;;;;;;;;;;4997018;28;20064;-89
2021/12/16 01:54:30;;;;;;;13.98;5.50;;;;;;;;;;4980784;28;20064;-89
2021/12/16 01:57:10;;;;;;;12.03;5.47;;;;;;;;;;4994062;28;20530;-89
2021/12/16 01:59:58;;;;;;;9.98;5.72;;;;;;;;;;4978910;28;20069;-90
2021/12/16 02:02:45;;;;;;;11.20;4.90;;;;;;;;;;4985938;28;20042;-89
2021/12/16 02:05:29;;;;;;;15.70;6.68;;;;;;;;;;4959120;28;20059;-89
2021/12/16 02:28:23;;;;;;;14.07;6.35;;;;;;;;;;4933846;28;20054;-90
2021/12/16 02:36:40;;;;;;;13.90;5.72;;;;;;;;;;4977794;28;20046;-89
2021/12/16 02:39:13;;;;;;;10.63;5.50;;;;;;;;;;4974656;28;20060;-89
2021/12/16 02:41:47;;;;;;;11.38;5.60;;;;;;;;;;4958303;28;20125;-90
2021/12/16 02:44:36;;;;;;;12.90;6.72;;;;;;;;;;4958236;28;20408;-89
2021/12/16 02:49:53;;;;;;;14.27;6.13;;;;;;;;;;4954438;28;20050;-86
2021/12/16 02:52:42;;;;;;;12.43;6.37;;;;;;;;;;4966203;28;20054;-89
2021/12/16 02:55:21;;;;;;;13.35;5.88;;;;;;;;;;4972572;28;20504;-90
2021/12/16 02:57:59;;;;;;;15.07;6.45;;;;;;;;;;4974688;28;20054;-90
2021/12/16 03:00:35;;;;;;;17.25;6.43;;;;;;;;;;4977524;28;20049;-89
2021/12/16 03:03:08;;;;;;;12.68;5.78;;;;;;;;;;4991219;28;20061;-89
2021/12/16 03:05:38;;;;;;;12.77;5.97;;;;;;;;;;4989865;28;20468;-90
2021/12/16 03:08:33;;;;;;;19.48;6.20;;;;;;;;;;5010226;28;20061;-90
2021/12/16 03:11:19;;;;;;;13.93;5.82;;;;;;;;;;4992016;28;20389;-92
2021/12/16 03:14:05;;;;;;;12.82;5.82;;;;;;;;;;5006463;28;20049;-90
2021/12/16 03:16:46;;;;;;;14.52;6.28;;;;;;;;;;4975457;28;20057;-90
2021/12/16 03:19:27;;;;;;;12.03;5.83;;;;;;;;;;4993572;28;20061;-90
2021/12/16 03:21:59;;;;;;;14.10;6.05;;;;;;;;;;4991717;28;20062;-90
2021/12/16 03:25:00;;;;;;;13.68;6.13;;;;;;;;;;4974054;28;20053;-90
2021/12/16 03:28:15;;;;;;;13.77;5.68;;;;;;;;;;4993030;28;20420;-90
2021/12/16 03:33:54;;;;;;;15.60;6.30;;;;;;;;;;4974325;28;20418;-90
2021/12/16 03:36:37;;;;;;;12.20;6.00;;;;;;;;;;4989716;28;20416;-90
2021/12/16 03:39:10;;;;;;;11.82;6.05;;;;;;;;;;5010739;28;20054;-87
2021/12/16 03:42:04;;;;;;;13.20;5.93;;;;;;;;;;4997639;28;20060;-90
2021/12/16 03:44:53;;;;;;;15.93;7.32;;;;;;;;;;4976289;28;20685;-88
2021/12/16 03:47:32;;;;;;;9.90;5.00;;;;;;;;;;4993575;28;20049;-89
2021/12/16 03:50:02;;;;;;;15.38;6.45;;;;;;;;;;4977548;28;20137;-89
2021/12/16 03:52:31;;;;;;;14.32;6.57;;;;;;;;;;4992244;28;20054;-88
2021/12/16 03:55:08;;;;;;;9.88;5.25;;;;;;;;;;4981490;28;20053;-88
2021/12/16 03:57:44;;;;;;;13.60;6.35;;;;;;;;;;4993120;28;20057;-89
2021/12/16 04:00:33;;;;;;;11.87;5.87;;;;;;;;;;4978667;28;20159;-89
2021/12/16 04:03:05;;;;;;;12.65;5.60;;;;;;;;;;4996886;28;20053;-89
2021/12/16 04:05:40;;;;;;;11.70;5.07;;;;;;;;;;4995164;28;20058;-89
2021/12/16 04:08:16;;;;;;;15.60;6.55;;;;;;;;;;4995318;28;20054;-89
2021/12/16 04:11:03;;;;;;;14.18;6.40;;;;;;;;;;5001579;28;20052;-89
2021/12/16 04:13:53;;;;;;;13.33;5.37;;;;;;;;;;4994549;28;20496;-89
2021/12/16 04:16:42;;;;;;;13.57;6.07;;;;;;;;;;4995191;28;20062;-89
2021/12/16 04:19:50;;;;;;;13.13;5.80;;;;;;;;;;4978871;28;20050;-89
2021/12/16 04:22:29;;;;;;;11.65;5.13;;;;;;;;;;4995837;28;20801;-89
2021/12/16 04:25:07;;;;;;;12.80;5.28;;;;;;;;;;4979966;28;20453;-89
2021/12/16 04:27:40;;;;;;;12.23;5.20;;;;;;;;;;4995227;28;20061;-89
2021/12/16 04:30:11;;;;;;;13.07;4.85;;;;;;;;;;4977325;28;20089;-90
2021/12/16 04:32:56;;;;;;;13.77;6.10;;;;;;;;;;4996996;28;20049;-89
2021/12/16 04:35:50;;;;;;;13.52;5.25;;;;;;;;;;4978372;28;20054;-90
2021/12/16 04:42:04;;;;;;;11.70;5.30;;;;;;;;;;4984774;28;20061;-89
2021/12/16 04:44:36;;;;;;;12.85;5.25;;;;;;;;;;4989767;28;20148;-90
2021/12/16 04:47:07;;;;;;;10.63;5.35;;;;;;;;;;4994369;28;20046;-89
2021/12/16 04:49:40;;;;;;;16.02;6.18;;;;;;;;;;4979865;28;20054;-89
2021/12/16 04:52:16;;;;;;;15.77;6.45;;;;;;;;;;4975853;28;20054;-90
2021/12/16 04:54:45;;;;;;;11.70;5.93;;;;;;;;;;4979486;28;20112;-89
2021/12/16 04:57:17;;;;;;;15.90;6.13;;;;;;;;;;4980306;28;20056;-89
2021/12/16 04:59:51;;;;;;;15.13;6.07;;;;;;;;;;4976166;28;20057;-89
2021/12/16 05:09:13;;;;;;;13.70;5.37;;;;;;;;;;4993246;28;20050;-89
2021/12/16 05:11:47;;;;;;;14.25;6.13;;;;;;;;;;4976284;28;20050;-88
2021/12/16 05:14:21;;;;;;;17.90;7.57;;;;;;;;;;4994926;28;20489;-88
2021/12/16 05:17:09;;;;;;;16.73;6.55;;;;;;;;;;4994985;28;20054;-89
2021/12/16 05:19:48;;;;;;;15.52;6.80;;;;;;;;;;4990877;28;20137;-89
2021/12/16 05:25:11;;;;;;;16.70;6.63;;;;;;;;;;4996815;28;20182;-88
2021/12/16 05:27:44;;;;;;;11.85;6.35;;;;;;;;;;4989084;28;20085;-90
2021/12/16 05:30:17;;;;;;;14.13;6.68;;;;;;;;;;4976964;28;20457;-90
2021/12/16 05:32:47;;;;;;;17.80;6.80;;;;;;;;;;4976766;28;20059;-90
2021/12/16 05:35:18;;;;;;;17.17;6.23;;;;;;;;;;4960549;28;20050;-89
2021/12/16 05:37:49;;;;;;;16.00;6.63;;;;;;;;;;4993251;28;20054;-89
2021/12/16 05:40:24;;;;;;;16.33;6.85;;;;;;;;;;4971678;28;20061;-87
2021/12/16 05:43:16;;;;;;;16.27;6.97;;;;;;;;;;4985248;28;20054;-87
2021/12/16 05:45:52;;;;;;;17.23;6.63;;;;;;;;;;4977848;28;20090;-89
2021/12/16 05:48:23;;;;;;;18.87;7.00;;;;;;;;;;4993023;28;20054;-89
2021/12/16 05:51:01;;;;;;;18.40;6.43;;;;;;;;;;4993351;28;20055;-88
2021/12/16 05:53:35;;;;;;;20.70;7.53;;;;;;;;;;4977776;28;20096;-89
2021/12/16 05:56:18;;;;;;;15.18;6.85;;;;;;;;;;4977634;28;20405;-90
2021/12/16 05:58:59;;;;;;;15.50;7.38;;;;;;;;;;4970817;28;20078;-89
2021/12/16 06:01:32;;;;;;;14.77;6.57;;;;;;;;;;4979397;28;20042;-90
2021/12/16 06:04:03;;;;;;;16.58;7.20;;;;;;;;;;4985127;28;20058;-88
2021/12/16 06:06:36;;;;;;;12.98;6.63;;;;;;;;;;4981721;28;20401;-89
2021/12/16 06:09:07;;;;;;;15.82;6.30;;;;;;;;;;4976000;28;20039;-88
2021/12/16 06:11:42;;;;;;;14.15;6.13;;;;;;;;;;4992259;28;20572;-88
2021/12/16 06:14:50;;;;;;;15.67;6.10;;;;;;;;;;4992421;28;20053;-87
2021/12/16 06:28:47;;;;;;;16.00;6.03;;;;;;;;;;4987317;28;20539;-87
2021/12/16 06:31:19;;;;;;;14.82;5.97;;;;;;;;;;4994808;28;20140;-86
2021/12/16 06:33:49;;;;;;;15.10;7.20;;;;;;;;;;4971742;28;20107;-87
2021/12/16 06:36:21;;;;;;;14.25;6.75;;;;;;;;;;4994534;28;20050;-87
2021/12/16 06:38:51;;;;;;;18.27;6.63;;;;;;;;;;4978318;28;20049;-87
2021/12/16 06:41:35;;;;;;;14.27;6.00;;;;;;;;;;4971764;28;20068;-87
2021/12/16 06:44:24;;;;;;;15.18;6.40;;;;;;;;;;4978155;28;20135;-87
2021/12/16 06:47:05;;;;;;;14.48;7.10;;;;;;;;;;4977568;28;20054;-86
2021/12/16 06:49:36;;;;;;;16.45;6.78;;;;;;;;;;4994138;28;20053;-87
2021/12/16 06:52:38;;;;;;;16.10;6.38;;;;;;;;;;4975215;28;20132;-87
2021/12/16 06:55:13;;;;;;;14.80;6.30;;;;;;;;;;4974532;28;20170;-85
2021/12/16 06:57:49;;;;;;;13.57;6.72;;;;;;;;;;4993622;28;20057;-87
2021/12/16 07:00:29;;;;;;;16.42;6.32;;;;;;;;;;4990975;28;20050;-86
2021/12/16 07:03:02;;;;;;;12.00;5.38;;;;;;;;;;4981530;28;20524;-87
2021/12/16 07:05:33;;;;;;;16.05;7.32;;;;;;;;;;4977988;28;20056;-87
2021/12/16 07:08:04;;;;;;;15.13;6.93;;;;;;;;;;4993426;28;20053;-87
2021/12/16 07:10:34;;;;;;;15.68;6.55;;;;;;;;;;4993299;28;20050;-87
2021/12/16 07:13:16;;;;;;;16.25;7.00;;;;;;;;;;4993120;28;20049;-87
2021/12/16 07:15:49;;;;;;;17.08;6.63;;;;;;;;;;4990490;28;20492;-87
2021/12/16 07:18:19;;;;;;;14.48;6.03;;;;;;;;;;4989796;28;20050;-87
2021/12/16 07:20:49;;;;;;;15.63;6.63;;;;;;;;;;4975713;28;20057;-86
2021/12/16 07:23:48;;;;;;;14.52;6.65;;;;;;;;;;4995005;28;20068;-87
2021/12/16 07:26:48;;;;;;;15.95;6.15;;;;;;;;;;4977000;28;20134;-86
2021/12/16 07:29:17;;;;;;;14.88;6.20;;;;;;;;;;4991855;28;20049;-87
2021/12/16 07:32:14;;;;;;;15.40;6.85;;;;;;;;;;4994881;28;20096;-86
2021/12/16 07:34:47;;;;;;;17.00;6.27;;;;;;;;;;4985838;28;20050;-86
2021/12/16 07:37:19;;;;;;;15.32;6.55;;;;;;;;;;4988782;28;20537;-87
2021/12/16 07:39:50;;;;;;;13.93;6.78;;;;;;;;;;5013980;28;20077;-86
2021/12/16 07:42:26;;;;;;;14.77;5.47;;;;;;;;;;4973759;28;20049;-86
2021/12/16 07:44:55;;;;;;;13.57;5.95;;;;;;;;;;4980753;28;20139;-85
2021/12/16 07:47:24;;;;;;;13.43;6.17;;;;;;;;;;4993403;28;20046;-86
2021/12/16 07:49:58;;;;;;;14.73;6.85;;;;;;;;;;4997958;28;20050;-86
2021/12/16 07:52:27;;;;;;;13.45;5.60;;;;;;;;;;5012470;28;20113;-86
2021/12/16 07:55:41;;;;;;;16.55;7.55;;;;;;;;;;4980232;28;20058;-86
2021/12/16 07:58:42;;;;;;;15.65;6.63;;;;;;;;;;4995123;28;20046;-86
2021/12/16 08:01:12;;;;;;;14.03;5.90;;;;;;;;;;4993843;28;20112;-86
2021/12/16 08:03:42;;;;;;;15.48;6.55;;;;;;;;;;4996156;28;20049;-86
2021/12/16 08:06:18;;;;;;;15.48;6.45;;;;;;;;;;4997191;28;20045;-87
2021/12/16 08:08:48;;;;;;;11.10;5.40;;;;;;;;;;4996612;28;20050;-87
2021/12/16 08:11:23;;;;;;;16.42;5.78;;;;;;;;;;4996661;28;20556;-86
2021/12/16 08:13:53;;;;;;;14.30;6.20;;;;;;;;;;4989779;28;20054;-86
2021/12/16 08:16:58;;;;;;;15.02;6.25;;;;;;;;;;5012721;28;20148;-86
2021/12/16 08:22:29;;;;;;;18.20;5.70;;;;;;;;;;4980649;28;20042;-87
2021/12/16 08:24:58;;;;;;;15.57;5.90;;;;;;;;;;4992766;28;20131;-86
2021/12/16 08:27:38;;;;;;;18.03;5.93;;;;;;;;;;4990692;28;20061;-86
2021/12/16 08:30:15;;;;;;;14.95;6.57;;;;;;;;;;4992858;28;20042;-86
2021/12/16 08:33:06;;;;;;;13.75;5.80;;;;;;;;;;4979970;28;20554;-85
2021/12/16 08:35:36;;;;;;;18.50;6.50;;;;;;;;;;4992852;28;20056;-86
2021/12/16 08:41:09;;;;;;;11.93;6.10;;;;;;;;;;4995620;28;20129;-86
2021/12/16 08:43:40;;;;;;;12.52;5.53;;;;;;;;;;4993205;28;20050;-85
2021/12/16 08:46:12;;;;;;;15.55;5.95;;;;;;;;;;4994145;28;20050;-86
2021/12/16 08:48:46;;;;;;;14.18;6.15;;;;;;;;;;4979308;28;20060;-86
2021/12/16 08:51:16;;;;;;;16.90;6.63;;;;;;;;;;4990517;28;20058;-86
2021/12/16 08:53:47;;;;;;;14.87;6.17;;;;;;;;;;4973314;28;20056;-86
2021/12/16 08:56:18;;;;;;;16.73;6.40;;;;;;;;;;4977817;28;20389;-86
2021/12/16 08:58:53;;;;;;;15.18;6.07;;;;;;;;;;4993645;28;20512;-87
2021/12/16 09:01:23;;;;;;;16.20;6.32;;;;;;;;;;4983623;28;20167;-86
2021/12/16 09:03:54;;;;;;;18.98;7.57;;;;;;;;;;5015211;28;20038;-87
2021/12/16 09:06:25;;;;;;;15.83;6.10;;;;;;;;;;4981564;28;20050;-87
2021/12/16 09:08:56;;;;;;;19.35;7.13;;;;;;;;;;4976327;28;20078;-87
2021/12/16 09:11:27;;;;;;;18.15;7.03;;;;;;;;;;4993136;28;20050;-87
2021/12/16 09:13:57;;;;;;;20.20;7.28;;;;;;;;;;4981308;28;20495;-86
2021/12/16 09:16:55;;;;;;;17.85;7.70;;;;;;;;;;4982200;28;20493;-87
2021/12/16 09:19:25;;;;;;;14.57;6.87;;;;;;;;;;4974662;28;20054;-88
2021/12/16 09:21:54;;;;;;;18.65;6.47;;;;;;;;;;4973642;28;20508;-86
2021/12/16 09:24:25;;;;;;;18.73;6.25;;;;;;;;;;4991639;28;20055;-86
2021/12/16 09:26:58;;;;;;;13.52;5.90;;;;;;;;;;4990224;28;20054;-87
2021/12/16 09:29:30;;;;;;;16.75;6.50;;;;;;;;;;4957093;28;20046;-88
2021/12/16 09:32:02;;;;;;;17.40;7.00;;;;;;;;;;4975416;28;20081;-87
2021/12/16 09:34:41;;;;;;;16.00;6.78;;;;;;;;;;4990377;28;20089;-86
2021/12/16 09:40:11;;;;;;;16.02;6.63;;;;;;;;;;4974043;28;20563;-86
2021/12/16 09:42:41;;;;;;;18.00;7.30;;;;;;;;;;4959568;28;20061;-87
2021/12/16 09:45:12;;;;;;;18.70;8.37;;;;;;;;;;4975030;28;20061;-85
2021/12/16 09:47:43;;;;;;;18.25;6.95;;;;;;;;;;4984030;28;20050;-87
2021/12/16 09:50:14;;;;;;;16.60;6.47;;;;;;;;;;4989418;28;20050;-86
2021/12/16 09:52:43;;;;;;;16.05;5.85;;;;;;;;;;4957351;28;20046;-86
2021/12/16 09:55:13;;;;;;;17.58;6.93;;;;;;;;;;4989632;28;20420;-87
2021/12/16 09:57:42;;;;;;;17.37;7.20;;;;;;;;;;4957938;28;20061;-87
2021/12/16 10:00:23;;;;;;;19.98;7.65;;;;;;;;;;4956616;28;20051;-86
2021/12/16 10:05:46;;;;;;;13.95;6.28;;;;;;;;;;4989470;28;20126;-86
2021/12/16 10:08:16;;;;;;;17.10;7.30;;;;;;;;;;5010207;28;20050;-87
2021/12/16 10:10:47;;;;;;;16.10;6.80;;;;;;;;;;4979545;28;20060;-87
2021/12/16 10:13:23;;;;;;;18.25;7.28;;;;;;;;;;5012234;28;20037;-86
2021/12/16 10:18:57;;;;;;;18.38;6.72;;;;;;;;;;4976726;28;20072;-87
2021/12/16 10:21:32;;;;;;;17.13;6.97;;;;;;;;;;4986221;28;20050;-87
2021/12/16 10:24:36;;;;;;;18.07;7.20;;;;;;;;;;4991749;28;20518;-87
2021/12/16 10:27:09;;;;;;;17.50;6.95;;;;;;;;;;4992999;28;20070;-86
2021/12/16 10:29:39;;;;;;;20.25;8.50;;;;;;;;;;4986668;28;20108;-87
2021/12/16 10:32:29;;;;;;;17.73;7.13;;;;;;;;;;4991545;28;20046;-86
2021/12/16 10:34:59;;;;;;;20.23;7.78;;;;;;;;;;4989177;28;20050;-86
2021/12/16 10:37:33;;;;;;;21.00;8.17;;;;;;;;;;4991270;28;20481;-86
2021/12/16 10:40:21;;;;;;;20.90;8.20;;;;;;;;;;4990184;28;20084;-86
2021/12/16 10:43:07;;;;;;;19.65;7.25;;;;;;;;;;4966425;28;20049;-87
2021/12/16 10:45:39;;;;;;;17.25;7.78;;;;;;;;;;5006101;28;20049;-88
2021/12/16 10:48:09;;;;;;;19.30;8.25;;;;;;;;;;4990384;28;20193;-87
2021/12/16 10:50:50;;;;;;;22.27;7.33;;;;;;;;;;4990614;28;20473;-89
2021/12/16 10:53:35;;;;;;;21.58;7.78;;;;;;;;;;4991820;28;20132;-87
2021/12/16 10:56:09;;;;;;;19.38;7.38;;;;;;;;;;4991784;28;20125;-88
2021/12/16 10:59:04;;;;;;;19.25;8.40;;;;;;;;;;4990538;28;20073;-87
2021/12/16 11:01:51;;;;;;;18.17;7.68;;;;;;;;;;4976931;28;20046;-88
2021/12/16 11:04:26;;;;;;;20.40;7.67;;;;;;;;;;4967687;28;20054;-88
2021/12/16 11:06:58;;;;;;;22.50;9.07;;;;;;;;;;4958427;28;20050;-88
2021/12/16 11:09:30;;;;;;;21.83;8.73;;;;;;;;;;4959740;28;20058;-87
2021/12/16 11:12:07;;;;;;;20.70;7.93;;;;;;;;;;4954779;28;20050;-87
2021/12/16 11:14:38;;;;;;;22.45;8.30;;;;;;;;;;4966353;28;20038;-85
2021/12/16 11:17:14;;;;;;;21.13;7.90;;;;;;;;;;4972262;28;20566;-87
2021/12/16 11:19:47;;;;;;;22.35;8.90;;;;;;;;;;4972871;28;20053;-88
2021/12/16 11:22:18;;;;;;;21.55;8.90;;;;;;;;;;4982120;28;20050;-87
2021/12/16 11:24:48;;;;;;;18.27;7.72;;;;;;;;;;4992912;28;20049;-87
2021/12/16 11:27:25;;;;;;;19.83;8.57;;;;;;;;;;4971372;28;20056;-86
2021/12/16 11:29:54;;;;;;;17.53;6.23;;;;;;;;;;4972626;28;20062;-87
2021/12/16 11:32:40;;;;;;;18.60;7.43;;;;;;;;;;4986394;28;20065;-87
2021/12/16 11:35:27;;;;;;;22.20;8.88;;;;;;;;;;4973169;28;20046;-88
2021/12/16 11:37:57;;;;;;;19.92;7.50;;;;;;;;;;4972218;28;20659;-88
2021/12/16 11:40:28;;;;;;;19.52;7.60;;;;;;;;;;4957513;28;20513;-88
2021/12/16 11:43:02;;;;;;;21.97;7.80;;;;;;;;;;4973549;28;20559;-87
2021/12/16 11:45:33;;;;;;;17.30;6.35;;;;;;;;;;4973101;28;20116;-88
2021/12/16 11:48:05;;;;;;;19.38;7.55;;;;;;;;;;4973516;28;20080;-87
2021/12/16 11:50:40;;;;;;;20.17;7.75;;;;;;;;;;4972859;28;20490;-87
2021/12/16 11:53:14;;;;;;;16.42;7.30;;;;;;;;;;4971413;28;20057;-87
2021/12/16 11:55:43;;;;;;;22.93;9.73;;;;;;;;;;4976186;28;20552;-85
2021/12/16 11:58:12;;;;;;;20.25;8.35;;;;;;;;;;4974314;28;20073;-87
2021/12/16 12:00:42;;;;;;;17.45;7.70;;;;;;;;;;4959224;28;20108;-88
2021/12/16 12:03:18;;;;;;;19.77;7.72;;;;;;;;;;4993608;28;20195;-88
2021/12/16 12:05:51;;;;;;;18.30;7.47;;;;;;;;;;4986005;28;20116;-87
2021/12/16 12:08:23;;;;;;;20.80;7.23;;;;;;;;;;4977047;28;20452;-87
2021/12/16 12:10:59;;;;;;;19.52;6.85;;;;;;;;;;4993879;28;20107;-87
2021/12/16 12:13:29;;;;;;;20.50;7.00;;;;;;;;;;4996302;28;20057;-87
2021/12/16 12:16:07;;;;;;;18.25;7.38;;;;;;;;;;4993598;28;20100;-84
2021/12/16 12:18:40;;;;;;;17.77;7.43;;;;;;;;;;4993014;28;20045;-86
2021/12/16 12:21:21;;;;;;;21.90;7.70;;;;;;;;;;5011430;28;20050;-86
2021/12/16 12:23:51;;;;;;;20.95;8.40;;;;;;;;;;4996035;28;20050;-86
2021/12/16 12:26:21;;;;;;;18.23;7.00;;;;;;;;;;5009175;28;20054;-86
2021/12/16 12:28:52;;;;;;;21.05;8.43;;;;;;;;;;4995874;28;20229;-86
2021/12/16 12:31:28;;;;;;;22.05;7.90;;;;;;;;;;4996423;28;20220;-85
2021/12/16 12:33:58;;;;;;;17.33;7.63;;;;;;;;;;4993579;28;20053;-85
2021/12/16 12:36:28;;;;;;;21.23;8.60;;;;;;;;;;5003645;28;20190;-86
2021/12/16 12:39:02;;;;;;;17.88;8.07;;;;;;;;;;4979510;28;20057;-86
2021/12/16 12:41:31;;;;;;;16.90;7.55;;;;;;;;;;5011450;28;20077;-85
2021/12/16 12:44:04;;;;;;;19.55;7.60;;;;;;;;;;4978798;28;20060;-86
2021/12/16 12:46:38;;;;;;;20.07;8.10;;;;;;;;;;4999047;28;20050;-85
2021/12/16 12:49:11;;;;;;;19.98;8.40;;;;;;;;;;4999230;28;20077;-85
2021/12/16 12:52:11;;;;;;;19.15;7.75;;;;;;;;;;4978866;28;20050;-85
2021/12/16 12:54:42;;;;;;;20.52;8.05;;;;;;;;;;4995851;28;20054;-86
2021/12/16 12:57:24;;;;;;;20.63;7.70;;;;;;;;;;4995806;28;20057;-86
2021/12/16 12:59:54;;;;;;;21.03;8.40;;;;;;;;;;4995666;28;20045;-85
2021/12/16 13:02:26;;;;;;;18.90;7.40;;;;;;;;;;4978571;28;20076;-86
2021/12/16 13:04:58;;;;;;;21.85;7.93;;;;;;;;;;4965393;28;20061;-86
2021/12/16 13:07:40;;;;;;;20.40;7.70;;;;;;;;;;4971109;28;20058;-86
2021/12/16 13:10:12;;;;;;;17.88;7.85;;;;;;;;;;4987901;28;20108;-87
2021/12/16 13:12:46;;;;;;;19.67;7.97;;;;;;;;;;4952968;28;20042;-86
2021/12/16 13:15:33;;;;;;;20.15;8.13;;;;;;;;;;4959966;28;20054;-86
2021/12/16 13:24:03;;;;;;;15.88;7.03;;;;;;;;;;4975835;28;20057;-86
2021/12/16 13:26:40;;;;;;;21.50;7.07;;;;;;;;;;4972066;28;20057;-87
2021/12/16 13:29:27;;;;;;;15.50;7.15;;;;;;;;;;4953744;28;20055;-86
2021/12/16 13:32:07;;;;;;;18.27;7.90;;;;;;;;;;4978685;28;20514;-86
2021/12/16 13:34:50;;;;;;;23.02;8.15;;;;;;;;;;4970582;28;20066;-86
2021/12/16 13:37:24;;;;;;;20.95;8.10;;;;;;;;;;4972729;28;20064;-86
2021/12/16 13:39:55;;;;;;;19.57;7.23;;;;;;;;;;4974124;28;20133;-89
2021/12/16 13:42:25;;;;;;;24.05;8.90;;;;;;;;;;4959156;28;20405;-89
2021/12/16 13:45:03;;;;;;;21.02;8.32;;;;;;;;;;4992395;28;20153;-87
2021/12/16 13:47:49;;;;;;;21.77;8.25;;;;;;;;;;4982454;28;20090;-86
2021/12/16 14:02:13;;;;;;;21.50;8.20;;;;;;;;;;4996137;28;20145;-86
2021/12/16 14:04:58;;;;;;;19.05;8.68;;;;;;;;;;5005142;28;20046;-86
2021/12/16 14:07:54;;;;;;;20.30;8.67;;;;;;;;;;4997367;28;20085;-86
2021/12/16 14:10:32;;;;;;;23.63;9.48;;;;;;;;;;4995636;28;20050;-87
2021/12/16 14:16:24;;;;;;;20.42;8.48;;;;;;;;;;4985436;28;20052;-87
2021/12/16 14:25:07;;;;;;;19.88;8.40;;;;;;;;;;4999263;28;20141;-84
2021/12/16 14:42:19;;;;;;;21.27;8.20;;;;;;;;;;4993449;28;20137;-86
2021/12/16 14:47:58;;;;;;;17.98;7.80;;;;;;;;;;4985333;28;20057;-87
2021/12/16 14:50:30;;;;;;;22.00;8.07;;;;;;;;;;4994566;28;20049;-87
2021/12/16 14:53:00;;;;;;;23.00;9.20;;;;;;;;;;4979367;28;20050;-87
2021/12/16 14:55:29;;;;;;;20.45;8.02;;;;;;;;;;4996628;28;20073;-86
2021/12/16 14:58:01;;;;;;;19.50;7.90;;;;;;;;;;5002503;28;20046;-87
2021/12/16 15:00:38;;;;;;;22.35;8.25;;;;;;;;;;4991350;28;20049;-87
2021/12/16 15:03:12;;;;;;;17.83;8.47;;;;;;;;;;4993611;28;20057;-85
2021/12/16 15:05:45;;;;;;;18.65;7.75;;;;;;;;;;4968238;28;20133;-88
2021/12/16 15:08:19;;;;;;;21.00;8.30;;;;;;;;;;4993123;28;20089;-87
2021/12/16 15:10:48;;;;;;;18.80;8.10;;;;;;;;;;4990053;28;20078;-87
2021/12/16 15:13:24;;;;;;;19.58;8.43;;;;;;;;;;4977125;28;20050;-86
2021/12/16 15:16:21;;;;;;;20.63;8.43;;;;;;;;;;4992758;28;20050;-89
2021/12/16 15:36:40;;;;;;;19.33;8.27;;;;;;;;;;4989869;28;20416;-87
2021/12/16 15:39:24;;;;;;;21.83;8.90;;;;;;;;;;5009403;28;20554;-87
2021/12/16 15:45:11;;;;;;;16.07;7.37;;;;;;;;;;4985357;28;20045;-85
2021/12/16 15:47:43;;;;;;;18.65;7.25;;;;;;;;;;5002871;28;20141;-85
2021/12/16 15:50:16;;;;;;;21.13;7.68;;;;;;;;;;4994609;28;20054;-84
2021/12/16 15:52:47;;;;;;;23.65;9.05;;;;;;;;;;4995444;28;20089;-85
2021/12/16 15:55:40;;;;;;;20.15;7.45;;;;;;;;;;5013012;28;20140;-84
2021/12/16 15:58:10;;;;;;;19.90;7.50;;;;;;;;;;4996894;28;20511;-85
2021/12/16 16:00:42;;;;;;;16.88;8.10;;;;;;;;;;4992945;28;20149;-85
2021/12/16 16:03:15;;;;;;;20.42;8.15;;;;;;;;;;4985803;28;20058;-84
2021/12/16 16:05:47;;;;;;;20.50;8.30;;;;;;;;;;4998924;28;20069;-83
2021/12/16 16:08:20;;;;;;;19.40;8.25;;;;;;;;;;4998282;28;20073;-84
2021/12/16 16:10:55;;;;;;;20.23;8.37;;;;;;;;;;4992359;28;20067;-84
2021/12/16 16:13:26;;;;;;;18.75;8.82;;;;;;;;;;4990442;28;20468;-84
2021/12/16 16:16:00;;;;;;;19.30;8.52;;;;;;;;;;4993451;28;20061;-85
2021/12/16 16:18:36;;;;;;;19.83;7.63;;;;;;;;;;4991864;28;20088;-85
2021/12/16 16:21:12;;;;;;;20.25;7.80;;;;;;;;;;4992918;28;20056;-85
2021/12/16 16:24:07;;;;;;;18.40;7.77;;;;;;;;;;4989104;28;20050;-84
2021/12/16 16:26:40;;;;;;;19.95;8.25;;;;;;;;;;5008440;28;20053;-84
2021/12/16 16:29:11;;;;;;;18.20;7.47;;;;;;;;;;4994928;28;20058;-85
2021/12/16 16:31:41;;;;;;;18.50;7.07;;;;;;;;;;4972304;28;20045;-85
2021/12/16 16:34:11;;;;;;;18.20;7.57;;;;;;;;;;4992007;28;20497;-85
2021/12/16 16:36:43;;;;;;;17.50;7.17;;;;;;;;;;4995251;28;20551;-85
2021/12/16 16:39:14;;;;;;;21.55;8.75;;;;;;;;;;4996143;28;20046;-85
2021/12/16 16:41:45;;;;;;;17.23;7.00;;;;;;;;;;4997893;28;20487;-87
2021/12/16 16:44:17;;;;;;;18.58;8.10;;;;;;;;;;4991899;28;20126;-89
2021/12/16 16:46:53;;;;;;;19.40;8.40;;;;;;;;;;4983241;28;20054;-86
2021/12/16 16:49:26;;;;;;;23.67;9.20;;;;;;;;;;4978451;28;20161;-85
2021/12/16 16:51:57;;;;;;;17.02;7.88;;;;;;;;;;4994292;28;20172;-85
2021/12/16 16:54:35;;;;;;;21.48;9.55;;;;;;;;;;4994281;28;20133;-84
2021/12/16 16:57:05;;;;;;;18.88;8.60;;;;;;;;;;4978445;28;20046;-84
2021/12/16 16:59:37;;;;;;;20.33;8.07;;;;;;;;;;4992704;28;20092;-83
2021/12/16 17:02:22;;;;;;;18.93;8.73;;;;;;;;;;4991751;28;20090;-86
2021/12/16 17:04:55;;;;;;;15.45;7.78;;;;;;;;;;4990650;28;20047;-84
2021/12/16 17:07:26;;;;;;;19.73;8.70;;;;;;;;;;4973019;28;20050;-82
2021/12/16 17:09:55;;;;;;;20.50;8.13;;;;;;;;;;4990516;28;20062;-82
2021/12/16 17:12:24;;;;;;;17.92;8.32;;;;;;;;;;4990775;28;20054;-82
2021/12/16 17:14:59;;;;;;;24.80;9.93;;;;;;;;;;4987958;28;20083;-82
2021/12/16 17:17:29;;;;;;;21.73;7.70;;;;;;;;;;4986351;28;20082;-82
2021/12/16 17:20:05;;;;;;;20.58;8.63;;;;;;;;;;4990224;28;20061;-81
2021/12/16 17:22:45;;;;;;;25.45;9.73;;;;;;;;;;4985379;28;20101;-83
2021/12/16 17:25:15;;;;;;;17.95;7.70;;;;;;;;;;4978851;28;20054;-85
2021/12/16 17:27:52;;;;;;;17.67;7.40;;;;;;;;;;5002876;28;20129;-85
2021/12/16 17:30:24;;;;;;;21.33;8.75;;;;;;;;;;4988861;28;20447;-83
2021/12/16 17:32:56;;;;;;;20.27;8.80;;;;;;;;;;4989333;28;20382;-84
2021/12/16 17:35:28;;;;;;;21.10;7.90;;;;;;;;;;4988969;28;20113;-83
2021/12/16 17:38:00;;;;;;;17.85;8.07;;;;;;;;;;4990233;28;20057;-83
2021/12/16 17:41:21;;;;;;;25.00;8.77;;;;;;;;;;5004711;28;20133;-84
2021/12/16 17:43:50;;;;;;;16.30;7.75;;;;;;;;;;4990690;28;20112;-85
2021/12/16 17:46:48;;;;;;;17.75;8.00;;;;;;;;;;4989889;28;20042;-83
2021/12/16 17:49:22;;;;;;;20.48;7.75;;;;;;;;;;4975333;28;20050;-84
2021/12/16 17:51:52;;;;;;;15.45;7.82;;;;;;;;;;4988818;28;20062;-83
2021/12/16 17:54:23;;;;;;;19.93;7.80;;;;;;;;;;4989056;28;20085;-83
2021/12/16 17:56:52;;;;;;;18.00;8.50;;;;;;;;;;4988975;28;20068;-84
2021/12/16 18:00:01;;;;;;;19.27;7.97;;;;;;;;;;4989236;28;20071;-83
2021/12/16 18:02:45;;;;;;;18.80;8.98;;;;;;;;;;4992068;28;20045;-84
2021/12/16 18:05:16;;;;;;;21.60;7.93;;;;;;;;;;4976543;28;20060;-89
2021/12/16 18:08:09;;;;;;;20.80;8.00;;;;;;;;;;4976677;28;20092;-86
2021/12/16 18:10:40;;;;;;;18.17;8.45;;;;;;;;;;4992923;28;20050;-88
2021/12/16 18:13:17;;;;;;;24.98;8.68;;;;;;;;;;4976966;28;20069;-89
2021/12/16 18:15:47;;;;;;;20.40;8.02;;;;;;;;;;4993357;28;20054;-87
2021/12/16 18:18:17;;;;;;;18.33;8.23;;;;;;;;;;4994401;28;20140;-87
2021/12/16 18:20:49;;;;;;;14.50;7.20;;;;;;;;;;4994843;28;20054;-86
2021/12/16 18:23:21;;;;;;;23.98;8.15;;;;;;;;;;4991623;28;20050;-88
2021/12/16 18:25:54;;;;;;;22.38;8.80;;;;;;;;;;4992700;28;20108;-87
2021/12/16 18:28:24;;;;;;;20.10;8.27;;;;;;;;;;4994013;28;20056;-87
2021/12/16 18:31:00;;;;;;;16.70;8.75;;;;;;;;;;4975680;28;20073;-87
2021/12/16 18:33:31;;;;;;;18.97;8.53;;;;;;;;;;4980310;28;20053;-88
2021/12/16 18:36:02;;;;;;;20.30;8.23;;;;;;;;;;4977944;28;20078;-87
2021/12/16 18:38:36;;;;;;;18.90;7.60;;;;;;;;;;4993877;28;20089;-87
2021/12/16 18:41:11;;;;;;;23.48;8.88;;;;;;;;;;4993315;28;20054;-87